Time;durP1;ratioP1;P1;durP2;ratioP2;P2;SDS_P1;SDS_P2;PMS_P1;PMS_P2;Temp;Humidity;BMP_temperature;BMP_pressure;BME280_temperature;BME280_humidity;BME280_pressure;Samples;Min_cycle;Max_cycle;Signal;HPM_P1;HPM_P2
2021/11/27 00:00:27;;;;;;;2.60;1.30;;;4.70;99.90;;;2.97;100.00;98016.75;2568551;30;137959;-36
2021/11/27 00:02:58;;;;;;;3.40;1.30;;;4.70;99.90;;;2.97;100.00;98019.44;2567768;30;136859;-36
2021/11/27 00:05:28;;;;;;;2.75;1.35;;;4.70;99.90;;;2.92;100.00;97999.63;2568641;30;138113;-36
2021/11/27 00:07:57;;;;;;;3.05;1.45;;;4.70;99.90;;;2.95;100.00;98009.94;2568067;30;137649;-36
2021/11/27 00:10:28;;;;;;;;;;;4.70;99.90;;;2.98;100.00;98004.91;2567891;30;138390;-36
2021/11/27 00:12:58;;;;;;;3.35;1.45;;;4.70;99.90;;;2.99;100.00;98006.56;2568519;30;138234;-36
2021/11/27 00:15:29;;;;;;;2.67;1.42;;;4.70;99.90;;;3.03;100.00;98004.19;2568519;30;136667;-36
2021/11/27 00:17:58;;;;;;;2.45;1.35;;;4.70;99.90;;;3.02;100.00;97999.88;2567430;30;137809;-36
2021/11/27 00:20:35;;;;;;;2.65;1.48;;;4.70;99.90;;;3.07;100.00;97996.47;2567955;30;138015;-36
2021/11/27 00:23:03;;;;;;;4.90;1.60;;;4.80;99.90;;;3.06;100.00;97997.53;2567039;30;137674;-36
2021/11/27 00:25:31;;;;;;;;;;;4.70;99.90;;;3.03;100.00;97998.81;2568496;30;137344;-36
2021/11/27 00:27:59;;;;;;;1.92;1.13;;;4.80;99.90;;;3.00;100.00;97999.28;2569006;30;137273;-36
2021/11/27 00:30:31;;;;;;;2.47;1.48;;;4.70;99.90;;;3.01;100.00;97996.38;2566317;30;138186;-36
2021/11/27 00:33:00;;;;;;;2.63;1.13;;;4.70;99.90;;;2.98;100.00;97999.53;2567874;30;137468;-36
2021/11/27 00:35:28;;;;;;;;;;;4.70;99.90;;;2.99;100.00;97994.94;2567914;30;138609;-36
2021/11/27 00:37:59;;;;;;;2.83;1.30;;;4.70;99.90;;;2.98;100.00;97996.84;2568059;30;136729;-36
2021/11/27 00:40:28;;;;;;;3.38;1.30;;;4.70;99.90;;;2.97;100.00;97997.88;2567296;30;137326;-36
2021/11/27 00:42:57;;;;;;;4.15;1.30;;;4.70;99.90;;;2.99;100.00;97995.78;2568939;30;137618;-36
2021/11/27 00:45:26;;;;;;;2.83;1.40;;;4.70;99.90;;;2.99;100.00;97998.47;2567154;30;138211;-36
2021/11/27 00:47:57;;;;;;;3.35;1.10;;;4.70;99.90;;;3.01;100.00;97996.38;2570281;30;138462;-36
2021/11/27 00:50:32;;;;;;;2.17;1.20;;;4.70;99.90;;;3.04;100.00;98005.03;2568589;30;138232;-36
2021/11/27 00:53:04;;;;;;;2.67;1.40;;;4.70;99.90;;;3.03;100.00;97998.81;2568312;30;138328;-36
2021/11/27 00:55:32;;;;;;;3.42;1.27;;;4.70;99.90;;;3.02;100.00;97998.00;2568012;30;139342;-36
2021/11/27 00:58:02;;;;;;;3.40;1.30;;;4.70;99.90;;;3.03;100.00;97998.81;2567730;30;136646;-36
2021/11/27 01:00:38;;;;;;;3.45;1.33;;;4.70;99.90;;;3.06;100.00;98003.75;2568434;30;139548;-36
2021/11/27 01:03:11;;;;;;;1.77;1.13;;;4.80;99.90;;;3.07;100.00;98005.41;2568556;30;138868;-36
2021/11/27 01:05:43;;;;;;;2.30;1.17;;;4.80;99.90;;;3.04;100.00;98000.44;2567609;30;139845;-36
2021/11/27 01:08:12;;;;;;;2.97;1.30;;;4.80;99.90;;;3.02;100.00;97994.47;2567910;30;139380;-36
2021/11/27 01:11:07;;;;;;;2.65;1.38;;;4.80;99.90;;;3.02;100.00;98003.41;2568463;30;137274;-36
2021/11/27 01:13:39;;;;;;;1.92;1.10;;;4.70;99.90;;;3.02;100.00;98002.56;2568310;30;136979;-36
2021/11/27 01:16:07;;;;;;;2.30;1.20;;;4.70;99.90;;;3.04;100.00;98002.34;2567055;30;138019;-36
2021/11/27 01:18:36;;;;;;;3.05;1.20;;;4.70;99.90;;;3.01;100.00;97998.22;2567467;30;138451;-36
2021/11/27 01:21:11;;;;;;;2.45;1.15;;;4.70;99.90;;;3.00;100.00;97997.41;2567920;30;139605;-36
2021/11/27 01:23:41;;;;;;;1.90;1.15;;;4.70;99.90;;;3.01;100.00;98004.44;2567593;30;137477;-36
2021/11/27 01:26:09;;;;;;;2.22;1.05;;;4.70;99.90;;;2.99;100.00;97995.78;2568533;30;138945;-36
2021/11/27 01:28:38;;;;;;;2.10;1.10;;;4.70;99.90;;;2.99;100.00;97995.78;2567887;30;138017;-36
2021/11/27 01:31:07;;;;;;;2.42;1.45;;;4.70;99.90;;;2.97;100.00;97999.75;2567871;30;138116;-36
2021/11/27 01:33:36;;;;;;;2.80;1.30;;;4.70;99.90;;;2.97;100.00;97997.06;2567269;30;139131;-36
2021/11/27 01:36:08;;;;;;;2.40;1.25;;;4.70;99.90;;;3.03;100.00;97998.81;2567479;30;139001;-36
2021/11/27 01:38:36;;;;;;;3.40;1.70;;;4.70;99.90;;;3.02;100.00;98003.41;2567276;30;138394;-36
2021/11/27 01:41:05;;;;;;;2.15;1.20;;;4.70;99.90;;;2.97;100.00;97999.75;2567994;30;139865;-36
2021/11/27 01:43:36;;;;;;;2.63;1.30;;;4.70;99.90;;;2.96;100.00;97998.94;2567727;30;138938;-36
2021/11/27 01:46:09;;;;;;;3.03;1.40;;;4.70;99.90;;;2.96;100.00;98000.81;2568648;30;138539;-36
2021/11/27 01:48:38;;;;;;;2.17;1.15;;;4.70;99.90;;;2.99;100.00;98001.16;2568166;30;139840;-36
2021/11/27 01:51:12;;;;;;;2.08;0.90;;;4.70;99.90;;;2.96;100.00;97998.94;2568389;30;140049;-36
2021/11/27 01:53:46;;;;;;;2.55;1.17;;;4.70;99.90;;;2.92;100.00;97997.78;2568698;30;139749;-36
2021/11/27 01:56:20;;;;;;;1.63;1.13;;;4.70;99.90;;;2.95;100.00;98002.69;2566723;30;138238;-36
2021/11/27 01:58:47;;;;;;;2.28;1.25;;;4.70;99.90;;;2.95;100.00;97999.16;2568261;30;137779;-36
2021/11/27 02:01:23;;;;;;;2.17;1.13;;;4.70;99.90;;;2.94;100.00;97998.34;2567964;30;139777;-36
2021/11/27 02:03:51;;;;;;;1.83;1.05;;;4.70;99.90;;;2.92;100.00;98003.16;2568741;30;137378;-36
2021/11/27 02:06:31;;;;;;;1.75;1.20;;;4.60;99.90;;;2.97;100.00;98003.28;2568250;30;140766;-36
2021/11/27 02:09:03;;;;;;;2.10;1.10;;;4.70;99.90;;;2.91;100.00;97998.78;2568114;30;137992;-36
2021/11/27 02:11:36;;;;;;;4.80;1.45;;;4.60;99.90;;;2.94;100.00;98006.44;2566330;30;139185;-36
2021/11/27 02:14:08;;;;;;;3.15;1.50;;;4.70;99.90;;;2.94;100.00;98000.22;2567997;30;137917;-36
2021/11/27 02:16:47;;;;;;;2.38;1.45;;;4.60;99.90;;;2.97;100.00;97997.88;2567827;30;140345;-36
2021/11/27 02:19:18;;;;;;;2.55;1.50;;;4.70;99.90;;;2.94;100.00;98001.03;2566996;30;138877;-35
2021/11/27 02:21:47;;;;;;;2.75;1.50;;;4.70;99.90;;;2.97;100.00;98000.59;2568646;30;140505;-36
2021/11/27 02:24:19;;;;;;;3.50;1.95;;;4.70;99.90;;;3.02;100.00;97994.47;2567864;30;139207;-36
2021/11/27 02:26:49;;;;;;;3.35;1.58;;;4.70;99.90;;;3.08;100.00;97990.88;2566201;30;137556;-36
2021/11/27 02:29:22;;;;;;;3.97;1.92;;;4.80;99.90;;;3.10;100.00;97994.16;2569189;30;139594;-36
2021/11/27 02:31:52;;;;;;;3.45;1.98;;;4.80;99.90;;;3.14;100.00;97987.25;2565345;30;139925;-36
2021/11/27 02:34:21;;;;;;;4.18;2.40;;;4.80;99.90;;;3.11;100.00;97984.19;2567806;30;139327;-36
2021/11/27 02:36:56;;;;;;;3.20;2.00;;;4.80;99.90;;;3.12;100.00;97992.03;2567354;30;140389;-36
2021/11/27 02:39:25;;;;;;;3.65;2.00;;;4.80;99.90;;;3.12;100.00;97988.50;2569000;30;137556;-36
2021/11/27 02:41:54;;;;;;;3.97;2.13;;;4.80;99.90;;;3.11;100.00;97997.66;2567341;30;139809;-36
2021/11/27 02:44:30;;;;;;;3.65;2.13;;;4.80;99.90;;;3.13;100.00;97998.25;2567245;30;138879;-36
2021/11/27 02:47:00;;;;;;;3.10;2.03;;;4.80;99.90;;;3.19;100.00;98007.28;2566881;30;139571;-36
2021/11/27 02:49:28;;;;;;;3.10;2.05;;;4.80;99.90;;;3.20;100.00;98011.59;2564850;30;140029;-36
2021/11/27 02:51:56;;;;;;;3.33;2.20;;;4.90;99.90;;;3.09;100.00;98003.28;2566909;30;138199;-36
2021/11/27 02:54:26;;;;;;;3.92;2.58;;;4.80;99.90;;;3.15;100.00;98002.34;2567207;30;138508;-36
2021/11/27 02:56:55;;;;;;;4.85;2.70;;;4.90;99.90;;;3.11;100.00;98000.34;2567386;30;139388;-36
2021/11/27 02:59:28;;;;;;;5.18;3.10;;;4.80;99.90;;;3.12;100.00;98002.81;2568623;30;139034;-36
2021/11/27 03:02:00;;;;;;;4.40;3.00;;;4.80;99.90;;;3.11;100.00;98013.81;2568784;30;139644;-36
2021/11/27 03:04:35;;;;;;;6.25;3.72;;;4.80;99.90;;;2.95;100.00;98008.06;2574972;30;137445;-39
2021/11/27 03:07:04;;;;;;;5.00;3.47;;;4.80;99.90;;;2.92;99.63;98032.78;2566560;30;139964;-38
2021/11/27 03:09:33;;;;;;;6.20;3.90;;;4.70;99.90;;;2.83;98.72;98034.16;2569664;30;137589;-40
2021/11/27 03:12:02;;;;;;;5.53;3.53;;;4.60;99.90;;;2.75;97.90;98039.88;2571206;30;139919;-38
2021/11/27 03:14:29;;;;;;;5.78;3.10;;;4.50;99.90;;;2.58;97.26;98041.34;2568828;30;138807;-38
2021/11/27 03:17:00;;;;;;;5.03;2.90;;;4.40;99.90;;;2.50;96.82;98054.28;2568644;30;138362;-38
2021/11/27 03:19:32;;;;;;;4.50;2.40;;;4.30;99.90;;;2.37;96.12;98055.28;2568823;30;137042;-38
2021/11/27 03:22:01;;;;;;;5.22;2.80;;;4.20;99.90;;;2.31;97.15;98057.00;2568880;30;140667;-38
2021/11/27 03:24:34;;;;;;;4.80;2.80;;;4.10;99.90;;;2.17;96.09;98059.03;2570199;30;137398;-39
2021/11/27 03:27:03;;;;;;;4.72;2.50;;;4.00;99.90;;;2.08;95.79;98061.22;2571808;30;140653;-38
2021/11/27 03:29:31;;;;;;;5.45;2.90;;;3.90;99.90;;;2.02;96.35;98059.44;2569027;30;137400;-38
2021/11/27 03:32:10;;;;;;;;;;;3.80;99.90;;;2.00;97.36;98066.91;2569977;30;140868;-38
2021/11/27 03:34:53;;;;;;;4.22;2.70;;;3.80;99.90;;;1.86;97.38;98075.13;2569094;30;137073;-38
2021/11/27 03:37:25;;;;;;;4.40;2.03;;;3.70;99.90;;;1.80;98.06;98078.69;2570612;30;139178;-38
2021/11/27 03:39:53;;;;;;;4.63;2.50;;;3.60;99.90;;;1.76;97.97;98066.75;2567658;30;139000;-38
2021/11/27 03:42:21;;;;;;;4.47;2.30;;;3.60;99.90;;;1.76;98.88;98082.06;2566106;30;140575;-38
2021/11/27 03:44:50;;;;;;;3.67;1.90;;;3.50;99.90;;;1.76;98.69;98082.88;2569417;30;137539;-38
2021/11/27 03:47:18;;;;;;;4.15;2.25;;;3.50;99.90;;;1.79;99.11;98084.31;2568798;30;140510;-38
2021/11/27 03:49:46;;;;;;;;;;;3.60;99.90;;;1.78;98.92;98096.91;2567976;30;138110;-38
2021/11/27 03:52:14;;;;;;;4.80;2.50;;;3.50;99.90;;;1.81;98.97;98101.84;2569742;30;139656;-38
2021/11/27 03:54:46;;;;;;;4.57;2.67;;;3.60;99.90;;;1.76;99.15;98109.75;2566361;30;137473;-38
2021/11/27 03:57:14;;;;;;;4.80;2.63;;;3.60;99.90;;;1.75;99.83;98110.81;2570680;30;138891;-38
2021/11/27 03:59:42;;;;;;;4.78;2.67;;;3.50;99.90;;;1.72;99.77;98122.00;2568247;30;137518;-38
2021/11/27 04:02:11;;;;;;;4.30;2.58;;;3.50;99.90;;;1.71;100.00;98117.66;2565808;30;140206;-38
2021/11/27 04:04:40;;;;;;;4.75;2.90;;;3.50;99.90;;;1.74;100.00;98119.91;2570089;30;139652;-38
2021/11/27 04:07:08;;;;;;;5.18;2.80;;;3.50;99.90;;;1.74;100.00;98121.78;2568497;30;139842;-38
2021/11/27 04:09:37;;;;;;;5.20;3.10;;;3.50;99.90;;;1.73;100.00;98131.72;2568162;30;137770;-38
2021/11/27 04:12:05;;;;;;;4.72;2.72;;;3.50;99.90;;;1.70;100.00;98121.41;2568265;30;140427;-38
2021/11/27 04:14:43;;;;;;;5.53;2.85;;;3.50;99.90;;;1.66;100.00;98122.88;2567465;30;139184;-38
2021/11/27 04:17:11;;;;;;;4.95;2.85;;;3.50;99.90;;;1.67;100.00;98132.59;2568017;30;139034;-38
2021/11/27 04:19:40;;;;;;;4.75;2.75;;;3.40;99.90;;;1.67;100.00;98137.97;2568480;30;137185;-38
2021/11/27 04:22:09;;;;;;;5.30;3.00;;;3.40;99.90;;;1.57;100.00;98136.59;2566696;30;140332;-38
2021/11/27 04:24:41;;;;;;;6.07;3.50;;;3.40;99.90;;;1.54;100.00;98145.09;2565289;30;138774;-38
2021/11/27 04:27:09;;;;;;;6.25;3.38;;;3.30;99.90;;;1.59;100.00;98141.75;2571269;30;140744;-38
2021/11/27 04:29:37;;;;;;;5.38;3.28;;;3.30;99.90;;;1.53;100.00;98143.44;2571230;30;139152;-38
2021/11/27 04:32:06;;;;;;;5.65;3.22;;;3.40;99.90;;;1.55;100.00;98152.09;2569852;30;138200;-38
2021/11/27 04:34:34;;;;;;;6.10;3.42;;;3.30;99.90;;;1.48;100.00;98156.72;2568234;30;139369;-38
2021/11/27 04:37:01;;;;;;;5.65;3.58;;;3.30;99.90;;;1.54;100.00;98155.84;2571168;30;140519;-38
2021/11/27 04:39:29;;;;;;;6.30;3.22;;;3.30;99.90;;;1.50;100.00;98165.38;2569159;30;138369;-38
2021/11/27 04:41:57;;;;;;;4.85;3.20;;;3.30;99.90;;;1.50;100.00;98169.97;2567701;30;138592;-38
2021/11/27 04:44:25;;;;;;;5.40;3.10;;;3.30;99.90;;;1.50;100.00;98170.75;2566752;30;136792;-38
2021/11/27 04:46:53;;;;;;;6.80;3.58;;;3.30;99.90;;;1.48;100.00;98178.22;2569351;30;138470;-38
2021/11/27 04:49:20;;;;;;;6.28;3.47;;;3.30;99.90;;;1.44;100.00;98182.38;2568262;30;137150;-38
2021/11/27 04:51:48;;;;;;;6.25;3.80;;;3.20;99.90;;;1.48;100.00;98180.91;2569461;30;139477;-38
2021/11/27 04:54:20;;;;;;;5.72;3.58;;;3.20;99.90;;;1.50;100.00;98178.81;2570121;30;139358;-38
2021/11/27 04:56:48;;;;;;;6.75;4.10;;;3.30;99.90;;;1.46;100.00;98182.16;2569736;30;139970;-38
2021/11/27 04:59:15;;;;;;;;;;;3.30;99.90;;;1.48;100.00;98188.16;2569558;30;137628;-38
2021/11/27 05:01:43;;;;;;;6.63;4.10;;;3.30;99.90;;;1.45;100.00;98194.78;2571289;30;139778;-38
2021/11/27 05:04:12;;;;;;;6.85;4.35;;;3.30;99.90;;;1.57;100.00;98198.41;2568301;30;139197;-38
2021/11/27 05:06:40;;;;;;;8.85;5.75;;;3.30;99.90;;;1.56;100.00;98202.13;2569701;30;139541;-38
2021/11/27 05:09:08;;;;;;;8.32;5.00;;;3.30;99.90;;;1.56;100.00;98202.13;2571836;30;138934;-38
2021/11/27 05:11:39;;;;;;;8.35;4.97;;;3.30;99.90;;;1.55;100.00;98205.06;2569019;30;139360;-38
2021/11/27 05:14:06;;;;;;;9.85;5.60;;;3.30;99.90;;;1.54;100.00;98206.91;2569665;30;137424;-38
2021/11/27 05:16:34;;;;;;;8.68;5.22;;;3.30;99.90;;;1.52;100.00;98209.00;2568799;30;139860;-38
2021/11/27 05:19:02;;;;;;;8.15;5.05;;;3.30;99.90;;;1.49;100.00;98208.63;2569320;30;137308;-38
2021/11/27 05:21:33;;;;;;;10.15;5.97;;;3.30;99.90;;;1.51;100.00;98214.59;2569254;30;137542;-38
2021/11/27 05:24:01;;;;;;;9.93;5.40;;;3.30;99.90;;;1.56;100.00;98215.56;2569961;30;139852;-38
2021/11/27 05:26:56;;;;;;;9.40;4.70;;;3.30;99.90;;;1.57;100.00;98219.91;2569692;30;140503;-38
2021/11/27 05:29:43;;;;;;;10.50;5.55;;;3.30;99.90;;;1.62;100.00;98231.88;2569618;30;136781;-38
2021/11/27 05:32:23;;;;;;;8.63;5.30;;;3.40;99.90;;;1.60;100.00;98232.09;2568522;30;138483;-38
2021/11/27 05:34:54;;;;;;;8.38;4.68;;;3.40;99.90;;;1.58;100.00;98231.50;2568207;30;136682;-38
2021/11/27 05:37:23;;;;;;;7.65;4.60;;;3.40;99.90;;;1.55;100.00;98231.94;2568215;30;140834;-38
2021/11/27 05:39:50;;;;;;;;;;;3.30;99.90;;;1.57;100.00;98227.16;2569277;30;136733;-38
2021/11/27 05:42:19;;;;;;;8.20;4.68;;;3.30;99.90;;;1.54;100.00;98239.16;2569934;30;138118;-38
2021/11/27 05:44:51;;;;;;;8.27;5.18;;;3.30;99.90;;;1.53;100.00;98245.56;2569260;30;136955;-38
2021/11/27 05:47:21;;;;;;;8.50;4.78;;;3.30;99.90;;;1.54;100.00;98247.22;2570714;30;140417;-38
2021/11/27 05:49:50;;;;;;;9.25;5.15;;;3.30;99.90;;;1.50;100.00;98248.69;2569504;30;139972;-38
2021/11/27 05:52:21;;;;;;;7.38;4.78;;;3.30;99.90;;;1.51;100.00;98246.84;2569911;30;139012;-38
2021/11/27 05:54:49;;;;;;;8.57;4.72;;;3.30;99.90;;;1.48;100.00;98249.97;2568929;30;137542;-38
2021/11/27 05:57:16;;;;;;;;;;;3.30;99.90;;;1.45;100.00;98248.53;2569337;30;137833;-38
2021/11/27 05:59:45;;;;;;;9.38;5.10;;;3.30;99.90;;;1.43;100.00;98247.91;2567602;30;137017;-38
2021/11/27 06:02:13;;;;;;;8.45;5.13;;;3.20;99.90;;;1.38;100.00;98245.06;2569496;30;137493;-38
2021/11/27 06:04:41;;;;;;;7.68;4.90;;;3.20;99.90;;;1.25;100.00;98245.97;2569962;30;138346;-38
2021/11/27 06:07:09;;;;;;;7.90;4.85;;;3.10;99.90;;;1.11;100.00;98250.56;2569057;30;137412;-38
2021/11/27 06:09:36;;;;;;;7.05;4.53;;;3.00;99.90;;;0.99;100.00;98256.59;2568898;30;136732;-38
2021/11/27 06:12:04;;;;;;;9.02;4.95;;;2.90;99.90;;;0.95;100.00;98260.75;2570361;30;137495;-38
2021/11/27 06:14:34;;;;;;;8.40;5.03;;;2.90;99.90;;;0.91;100.00;98259.53;2569078;30;137563;-38
2021/11/27 06:17:02;;;;;;;8.85;5.15;;;2.80;99.90;;;0.91;100.00;98270.28;2568952;30;137293;-38
2021/11/27 06:19:29;;;;;;;9.48;5.78;;;2.80;99.90;;;0.95;100.00;98265.31;2569606;30;137390;-38
2021/11/27 06:21:57;;;;;;;9.13;5.13;;;2.80;99.90;;;0.99;100.00;98271.91;2568707;30;138458;-38
2021/11/27 06:24:25;;;;;;;8.70;5.38;;;2.80;99.90;;;1.01;100.00;98272.50;2568859;30;137441;-38
2021/11/27 06:26:52;;;;;;;8.65;4.70;;;2.80;99.90;;;1.03;100.00;98274.97;2569506;30;137492;-38
2021/11/27 06:29:20;;;;;;;9.75;6.00;;;2.80;99.90;;;1.02;100.00;98286.75;2570436;30;136838;-38
2021/11/27 06:31:49;;;;;;;10.35;5.90;;;2.90;99.90;;;1.05;100.00;98278.25;2570807;30;136731;-38
2021/11/27 06:34:17;;;;;;;10.45;6.05;;;2.80;99.90;;;1.07;100.00;98286.97;2569774;30;138058;-37
2021/11/27 06:36:44;;;;;;;;;;;2.90;99.90;;;1.11;100.00;98293.56;2566353;30;138004;-38
2021/11/27 06:39:12;;;;;;;11.32;5.95;;;2.90;99.90;;;1.19;100.00;98292.47;2573015;30;137156;-38
2021/11/27 06:41:41;;;;;;;10.80;6.30;;;2.90;99.90;;;1.25;100.00;98292.44;2568971;30;140900;-38
2021/11/27 06:44:34;;;;;;;12.25;6.40;;;3.00;99.90;;;1.23;100.00;98291.84;2568337;30;137056;-38
2021/11/27 06:47:02;;;;;;;12.18;7.38;;;3.10;99.90;;;1.27;100.00;98294.94;2568350;30;140735;-38
2021/11/27 06:49:30;;;;;;;12.10;6.47;;;3.10;99.90;;;1.28;100.00;98302.75;2569430;30;137449;-38
2021/11/27 06:51:58;;;;;;;10.40;6.25;;;3.10;99.90;;;1.28;100.00;98305.44;2569498;30;137721;-38
2021/11/27 06:54:25;;;;;;;13.25;7.15;;;3.10;99.90;;;1.29;100.00;98312.47;2569849;30;137512;-38
2021/11/27 06:56:53;;;;;;;12.68;6.90;;;3.10;99.90;;;1.34;100.00;98319.09;2570613;30;138316;-38
2021/11/27 06:59:22;;;;;;;11.70;6.35;;;3.10;99.90;;;1.47;100.00;98319.00;2569997;30;138872;-38
2021/11/27 07:02:20;;;;;;;11.93;6.45;;;3.20;99.90;;;1.43;100.00;98321.28;2570579;30;139879;-38
2021/11/27 07:05:07;;;;;;;12.05;6.45;;;3.20;99.90;;;1.47;100.00;98326.25;2571494;30;136670;-38
2021/11/27 07:07:57;;;;;;;12.93;6.88;;;3.20;99.90;;;1.49;100.00;98341.09;2570354;30;138763;-38
2021/11/27 07:10:26;;;;;;;12.65;6.93;;;3.30;99.90;;;1.60;100.00;98341.50;2570749;30;136806;-38
2021/11/27 07:13:14;;;;;;;;;;;3.30;99.90;;;1.62;100.00;98358.22;2567752;30;139651;-38
2021/11/27 07:15:42;;;;;;;9.95;5.40;;;3.30;99.90;;;1.62;100.00;98363.59;2569643;30;137366;-38
2021/11/27 07:18:09;;;;;;;11.48;6.57;;;3.40;99.90;;;1.65;100.00;98358.59;2566169;30;137352;-38
2021/11/27 07:20:37;;;;;;;12.70;6.50;;;3.40;99.90;;;1.67;100.00;98366.47;2568728;30;136823;-38
2021/11/27 07:23:05;;;;;;;13.02;6.68;;;3.40;99.90;;;1.69;100.00;98367.88;2568007;30;140722;-38
2021/11/27 07:25:33;;;;;;;12.35;6.65;;;3.50;99.90;;;1.65;100.00;98369.34;2569346;30;137817;-39
2021/11/27 07:28:19;;;;;;;10.98;6.15;;;3.40;99.90;;;1.67;100.00;98380.72;2570112;30;136798;-38
2021/11/27 07:30:47;;;;;;;11.90;6.30;;;3.40;99.90;;;1.73;100.00;98381.72;2569539;30;137375;-38
2021/11/27 07:33:15;;;;;;;12.50;6.68;;;3.50;99.90;;;1.76;100.00;98388.56;2567721;30;137109;-38
2021/11/27 07:35:42;;;;;;;;;;;3.50;99.90;;;1.76;100.00;98393.94;2569488;30;138387;-38
2021/11/27 07:38:10;;;;;;;12.55;6.68;;;3.50;99.90;;;1.85;100.00;98409.56;2570546;30;137942;-38
2021/11/27 07:40:38;;;;;;;11.40;6.57;;;3.50;99.90;;;1.83;100.00;98406.28;2569252;30;137490;-38
2021/11/27 07:43:05;;;;;;;12.38;6.30;;;3.60;99.90;;;1.79;100.00;98421.19;2568000;30;138297;-38
2021/11/27 07:45:35;;;;;;;14.13;7.32;;;3.60;99.90;;;1.82;100.00;98409.19;2568897;30;136862;-38
2021/11/27 07:48:24;;;;;;;12.03;6.93;;;3.60;99.90;;;1.81;100.00;98408.34;2568844;30;137128;-39
2021/11/27 07:51:10;;;;;;;13.30;6.77;;;3.60;99.90;;;1.88;100.00;98423.66;2569024;30;136834;-38
2021/11/27 07:53:59;;;;;;;14.48;7.00;;;3.60;99.90;;;1.91;100.00;98429.41;2569932;30;137918;-38
2021/11/27 07:56:27;;;;;;;13.48;7.10;;;3.60;99.90;;;1.96;100.00;98426.09;2570442;30;137494;-38
2021/11/27 07:58:55;;;;;;;15.55;7.40;;;3.70;99.90;;;1.99;100.00;98431.88;2571489;30;138642;-38
2021/11/27 08:01:22;;;;;;;18.45;8.70;;;3.70;99.90;;;1.98;100.00;98442.84;2571798;30;136755;-38
2021/11/27 08:03:50;;;;;;;18.80;8.98;;;3.70;99.90;;;2.00;100.00;98436.22;2570380;30;139073;-38
2021/11/27 08:06:17;;;;;;;19.50;9.00;;;3.70;99.90;;;1.99;100.00;98442.63;2571944;30;137655;-39
2021/11/27 08:08:45;;;;;;;18.65;7.75;;;3.70;99.90;;;1.98;100.00;98438.25;2572258;30;139173;-38
2021/11/27 08:11:13;;;;;;;18.08;8.32;;;3.70;99.90;;;1.98;100.00;98448.22;2569833;30;137011;-38
2021/11/27 08:13:42;;;;;;;16.27;8.02;;;3.70;99.90;;;2.01;100.00;98448.63;2572436;30;138390;-38
2021/11/27 08:16:10;;;;;;;14.00;7.22;;;3.80;99.90;;;2.08;100.00;98455.81;2569643;30;136974;-38
2021/11/27 08:18:38;;;;;;;18.27;8.18;;;3.80;99.90;;;2.11;100.00;98453.50;2569730;30;138113;-38
2021/11/27 08:21:06;;;;;;;14.93;6.95;;;3.80;99.90;;;2.12;100.00;98457.03;2568462;30;137663;-38
2021/11/27 08:23:47;;;;;;;14.82;8.10;;;3.80;99.90;;;2.11;100.00;98453.50;2569430;30;138355;-38
2021/11/27 08:26:15;;;;;;;;;;;3.80;99.90;;;2.26;100.00;98468.53;2571833;30;137465;-38
2021/11/27 08:28:43;;;;;;;14.68;6.95;;;3.90;99.90;;;2.25;100.00;98456.13;2569333;30;137266;-38
2021/11/27 08:31:10;;;;;;;14.70;7.78;;;3.90;99.90;;;2.22;100.00;98460.06;2569296;30;137574;-38
2021/11/27 08:33:38;;;;;;;18.98;8.15;;;3.90;99.90;;;2.25;100.00;98472.28;2569299;30;137907;-38
2021/11/27 08:36:06;;;;;;;15.27;7.50;;;3.90;99.90;;;2.26;100.00;98473.94;2569136;30;137978;-38
2021/11/27 08:38:34;;;;;;;19.88;8.38;;;3.90;99.90;;;2.27;100.00;98473.72;2569374;30;138309;-38
2021/11/27 08:41:02;;;;;;;;;;;4.00;99.90;;;2.27;100.00;98473.72;2568006;30;138349;-38
2021/11/27 08:43:30;;;;;;;13.82;6.15;;;4.00;99.90;;;2.38;100.00;98476.75;2571342;30;139301;-39
2021/11/27 08:45:58;;;;;;;16.38;7.88;;;4.00;99.90;;;2.40;100.00;98474.66;2570551;30;138455;-38
2021/11/27 08:48:25;;;;;;;14.32;7.53;;;4.10;99.90;;;2.42;100.00;98478.81;2570397;30;137474;-38
2021/11/27 08:50:53;;;;;;;17.55;8.07;;;4.10;99.90;;;2.44;100.00;98482.09;2570160;30;138791;-38
2021/11/27 08:53:20;;;;;;;15.52;7.30;;;4.10;99.90;;;2.44;100.00;98481.28;2571172;30;137696;-39
2021/11/27 08:55:48;;;;;;;15.50;7.70;;;4.10;99.90;;;2.44;100.00;98490.19;2568374;30;137172;-38
2021/11/27 08:58:16;;;;;;;15.70;7.78;;;4.10;99.90;;;2.39;100.00;98495.41;2569818;30;139123;-38
2021/11/27 09:00:44;;;;;;;16.83;8.20;;;4.10;99.90;;;2.42;100.00;98500.34;2568081;30;137651;-39
2021/11/27 09:03:12;;;;;;;15.05;7.30;;;4.10;99.90;;;2.37;100.00;98507.41;2589511;30;138869;-39
2021/11/27 09:05:40;;;;;;;14.40;7.78;;;4.10;99.90;;;2.33;100.00;98496.22;2565150;30;136879;-40
2021/11/27 09:08:08;;;;;;;14.90;8.10;;;4.10;99.90;;;2.46;100.00;98507.97;2565913;30;137123;-40
2021/11/27 09:10:36;;;;;;;18.55;7.85;;;4.10;99.90;;;2.52;100.00;98510.63;2568896;30;136583;-40
2021/11/27 09:13:04;;;;;;;16.55;7.38;;;4.10;99.90;;;2.56;100.00;98502.94;2568817;30;137612;-40
2021/11/27 09:15:32;;;;;;;14.70;7.90;;;4.20;99.90;;;2.66;99.89;98515.91;2568147;30;137716;-40
2021/11/27 09:18:03;;;;;;;14.77;7.43;;;4.20;99.90;;;2.72;99.73;98523.13;2568303;30;138459;-40
2021/11/27 09:20:33;;;;;;;13.55;7.63;;;4.30;99.90;;;2.75;99.37;98520.00;2567930;30;138239;-40
2021/11/27 09:23:01;;;;;;;14.63;7.55;;;4.40;99.90;;;2.81;98.87;98529.06;2568697;30;137470;-40
2021/11/27 09:25:29;;;;;;;;;;;4.40;99.90;;;2.86;99.50;98529.25;2569069;30;136975;-40
2021/11/27 09:27:58;;;;;;;15.20;6.50;;;4.40;99.90;;;2.96;99.69;98537.69;2565121;30;138527;-40
2021/11/27 09:30:30;;;;;;;17.73;7.45;;;4.50;99.90;;;3.10;97.42;98532.16;2567920;30;137484;-39
2021/11/27 09:32:58;;;;;;;16.40;7.57;;;4.60;99.90;;;3.10;97.50;98542.94;2567916;30;138875;-40
2021/11/27 09:35:26;;;;;;;16.83;7.53;;;4.70;99.90;;;3.18;97.38;98550.75;2567375;30;137631;-40
2021/11/27 09:37:54;;;;;;;;;;;4.70;99.90;;;3.27;97.32;98546.75;2568755;30;137371;-40
2021/11/27 09:40:22;;;;;;;15.05;7.05;;;4.80;99.90;;;3.30;95.22;98546.31;2568393;30;137180;-40
2021/11/27 09:42:54;;;;;;;13.40;6.95;;;4.90;99.90;;;3.36;95.88;98557.25;2567581;30;137232;-40
2021/11/27 09:45:26;;;;;;;12.38;6.53;;;4.90;99.90;;;3.38;94.89;98553.31;2567877;30;138161;-40
2021/11/27 09:47:55;;;;;;;13.35;6.60;;;5.00;99.90;;;3.34;92.87;98556.66;2569378;30;139208;-40
2021/11/27 09:50:24;;;;;;;13.10;5.68;;;5.00;99.90;;;3.34;92.98;98564.72;2568816;30;136823;-40
2021/11/27 09:52:53;;;;;;;15.65;6.43;;;4.90;99.90;;;3.31;93.51;98566.81;2567485;30;140741;-40
2021/11/27 09:55:20;;;;;;;15.95;6.35;;;5.00;99.90;;;3.31;92.71;98564.13;2567214;30;137253;-40
2021/11/27 09:57:50;;;;;;;;;;;5.00;99.90;;;3.36;92.39;98578.81;2568190;30;138370;-40
2021/11/27 10:00:20;;;;;;;10.20;5.55;;;5.00;99.90;;;3.30;92.03;98581.34;2567849;30;137119;-40
2021/11/27 10:02:56;;;;;;;10.60;5.90;;;5.00;99.90;;;3.21;92.16;98593.47;2568527;30;139357;-40
2021/11/27 10:05:24;;;;;;;11.90;6.03;;;4.90;99.90;;;3.13;92.32;98588.31;2567256;30;137145;-40
2021/11/27 10:07:54;;;;;;;11.32;5.72;;;4.80;99.90;;;3.12;93.08;98581.28;2568625;30;138959;-40
2021/11/27 10:10:22;;;;;;;17.25;5.97;;;4.80;99.90;;;3.19;93.81;98600.09;2566828;30;137269;-40
2021/11/27 10:12:50;;;;;;;14.18;6.00;;;4.80;99.90;;;3.20;94.90;98597.19;2566763;30;137457;-40
2021/11/27 10:15:17;;;;;;;10.88;5.55;;;4.90;99.90;;;3.25;94.08;98597.38;2567221;30;137396;-40
2021/11/27 10:17:45;;;;;;;16.35;5.82;;;4.90;99.90;;;3.33;92.91;98598.97;2567841;30;137349;-40
2021/11/27 10:20:17;;;;;;;11.30;4.93;;;5.00;99.90;;;3.38;91.80;98590.19;2566872;30;139234;-40
2021/11/27 10:22:51;;;;;;;14.73;5.90;;;5.00;99.90;;;3.45;92.18;98597.19;2568257;30;138160;-40
2021/11/27 10:25:43;;;;;;;11.95;4.97;;;5.10;99.90;;;3.57;91.60;98596.47;2567823;30;137740;-40
2021/11/27 10:28:18;;;;;;;12.07;5.50;;;5.10;99.90;;;3.59;90.81;98592.50;2566128;30;137412;-40
2021/11/27 10:30:59;;;;;;;13.75;5.75;;;5.20;99.90;;;3.67;91.34;98606.75;2568837;30;137421;-40
2021/11/27 10:33:29;;;;;;;13.07;5.18;;;5.30;99.90;;;3.69;88.79;98605.50;2567171;30;138432;-40
2021/11/27 10:36:10;;;;;;;8.40;4.55;;;5.30;99.90;;;3.69;87.84;98601.94;2567391;30;138590;-40